createdAt,value
2016-09-21T00:00:33.346Z,48.61
2016-09-21T00:01:14.021Z,48.88
2016-09-21T00:01:54.715Z,48.59
2016-09-21T00:02:35.394Z,48.71
2016-09-21T00:03:16.081Z,48.81
2016-09-21T00:03:56.741Z,48.71
2016-09-21T00:04:37.467Z,48.71
2016-09-21T00:05:18.137Z,48.71
2016-09-21T00:05:58.800Z,48.79
2016-09-21T00:06:39.530Z,48.32
2016-09-21T00:07:20.233Z,48.81
2016-09-21T00:08:00.899Z,48.79
2016-09-21T00:08:41.546Z,48.71
2016-09-21T00:09:22.245Z,48.69
2016-09-21T00:10:02.902Z,48.69
2016-09-21T00:10:43.643Z,48.9
2016-09-21T00:11:24.339Z,48.61
2016-09-21T00:12:05.015Z,48.71
2016-09-21T00:12:45.685Z,48.61
2016-09-21T00:13:26.382Z,48.61
2016-09-21T00:14:07.098Z,48.69
2016-09-21T00:14:47.763Z,48.71
2016-09-21T00:15:28.429Z,48.39
2016-09-21T00:16:09.092Z,48.32
2016-09-21T00:16:49.808Z,48.22
2016-09-21T00:17:30.487Z,48.71
2016-09-21T00:18:11.160Z,48.9
2016-09-21T00:18:51.834Z,48.71
2016-09-21T00:19:32.538Z,48.69
2016-09-21T00:20:13.236Z,48.42
2016-09-21T00:20:53.989Z,48.52
2016-09-21T00:21:34.704Z,48.42
2016-09-21T00:22:15.425Z,48.61
2016-09-21T00:22:56.082Z,48.42
2016-09-21T00:23:36.728Z,48.71
2016-09-21T00:24:17.376Z,48.42
2016-09-21T00:24:58.692Z,48.3
2016-09-21T00:25:38.778Z,48.81
2016-09-21T00:26:19.464Z,48.71
2016-09-21T00:27:00.163Z,48.39
2016-09-21T00:27:40.901Z,48.52
2016-09-21T00:28:21.587Z,48.3
2016-09-21T00:29:02.269Z,48.9
2016-09-21T00:29:42.962Z,48.71
2016-09-21T00:30:23.653Z,48.42
2016-09-21T00:31:04.319Z,48.3
2016-09-21T00:31:45.033Z,48.79
2016-09-21T00:32:25.710Z,48.49
2016-09-21T00:33:06.420Z,48.49
2016-09-21T00:33:47.101Z,48.39
2016-09-21T00:34:27.815Z,48.01
2016-09-21T00:35:08.491Z,47.81
2016-09-21T00:35:49.169Z,46.92
2016-09-21T00:36:29.973Z,47.02
2016-09-21T00:37:10.647Z,46.53
2016-09-21T00:37:51.334Z,46.63
2016-09-21T00:38:31.997Z,47.41
2016-09-21T00:39:12.704Z,47.5
2016-09-21T00:39:53.395Z,47.96
2016-09-21T00:40:34.069Z,48.27
2016-09-21T00:41:14.822Z,48.64
2016-09-21T00:41:55.505Z,48.18
2016-09-21T00:42:36.160Z,47.6
2016-09-21T00:43:16.833Z,47.86
2016-09-21T00:43:57.560Z,47.38
2016-09-21T00:44:38.228Z,47.67
2016-09-21T00:45:18.924Z,47.48
2016-09-21T00:45:59.588Z,47.58
2016-09-21T00:46:40.246Z,47.84
2016-09-21T00:47:20.959Z,47.58
2016-09-21T00:48:01.656Z,47.74
2016-09-21T00:48:42.281Z,46.88
2016-09-21T00:49:22.992Z,46.8
2016-09-21T00:50:03.643Z,46.49
2016-09-21T00:50:44.317Z,46.3
2016-09-21T00:51:25.009Z,46.68
2016-09-21T00:52:05.677Z,46.2
2016-09-21T00:52:46.367Z,46
2016-09-21T00:53:27.036Z,46.39
2016-09-21T00:54:07.732Z,46
2016-09-21T00:54:48.435Z,46.2
2016-09-21T00:55:29.141Z,46.27
2016-09-21T00:56:09.792Z,46.27
2016-09-21T00:56:50.471Z,46.37
2016-09-21T00:57:31.160Z,45.89
2016-09-21T00:58:11.820Z,46.37
2016-09-21T00:58:52.470Z,48.13
2016-09-21T00:59:33.176Z,49.49
2016-09-21T01:00:13.879Z,49.68
2016-09-21T01:00:54.576Z,50.35
2016-09-21T01:01:35.265Z,50.26
2016-09-21T01:02:15.956Z,50.35
2016-09-21T01:02:56.685Z,50.26
2016-09-21T01:03:37.374Z,50.55
2016-09-21T01:04:18.060Z,50.74
2016-09-21T01:04:58.777Z,50.65
2016-09-21T01:05:39.439Z,51.13
2016-09-21T01:06:20.142Z,50.96
2016-09-21T01:07:00.792Z,51.35
2016-09-21T01:07:41.492Z,51.54
2016-09-21T01:08:22.246Z,51.25
2016-09-21T01:09:02.853Z,51.25
2016-09-21T01:09:43.493Z,51.54
2016-09-21T01:10:24.182Z,51.25
2016-09-21T01:11:04.883Z,52.22
2016-09-21T01:11:45.530Z,51.54
2016-09-21T01:12:26.192Z,51.25
2016-09-21T01:13:06.899Z,51.25
2016-09-21T01:13:47.591Z,51.35
2016-09-21T01:14:28.290Z,51.54
2016-09-21T01:15:08.947Z,51.54
2016-09-21T01:15:49.651Z,51.15
2016-09-21T01:16:30.384Z,52.02
2016-09-21T01:17:11.048Z,50.96
2016-09-21T01:17:51.731Z,51.35
2016-09-21T01:18:32.406Z,51.25
2016-09-21T01:19:13.084Z,51.25
2016-09-21T01:19:53.785Z,51.35
2016-09-21T01:20:34.445Z,51.06
2016-09-21T01:21:15.165Z,51.25
2016-09-21T01:21:55.856Z,50.89
2016-09-21T01:22:36.573Z,51.08
2016-09-21T01:23:17.275Z,51.25
2016-09-21T01:23:57.967Z,51.18
2016-09-21T01:24:38.707Z,50.98
2016-09-21T01:25:19.346Z,51.37
2016-09-21T01:26:00.043Z,50.6
2016-09-21T01:26:40.765Z,51.18
2016-09-21T01:27:21.446Z,51.37
2016-09-21T01:28:02.151Z,50.79
2016-09-21T01:28:42.825Z,50.98
2016-09-21T01:29:23.501Z,51.18
2016-09-21T01:30:04.156Z,51.08
2016-09-21T01:30:44.843Z,50.79
2016-09-21T01:31:25.549Z,50.79
2016-09-21T01:32:06.233Z,50.79
2016-09-21T01:32:46.954Z,50.89
2016-09-21T01:33:27.626Z,50.79
2016-09-21T01:34:08.282Z,50.6
2016-09-21T01:34:48.957Z,50.79
2016-09-21T01:35:29.655Z,50.4
2016-09-21T01:36:10.351Z,50.7
2016-09-21T01:36:51.063Z,50.4
2016-09-21T01:37:31.727Z,50.5
2016-09-21T01:38:12.407Z,50.4
2016-09-21T01:38:53.103Z,50.5
2016-09-21T01:39:33.831Z,50.7
2016-09-21T01:40:14.506Z,50.79
2016-09-21T01:40:55.209Z,50.79
2016-09-21T01:41:35.908Z,50.4
2016-09-21T01:42:16.573Z,50.31
2016-09-21T01:42:57.269Z,50.4
2016-09-21T01:43:37.982Z,50.21
2016-09-21T01:44:18.660Z,50.5
2016-09-21T01:44:59.366Z,50.6
2016-09-21T01:45:40.053Z,50.5
2016-09-21T01:46:20.733Z,50.6
2016-09-21T01:47:01.419Z,50.7
2016-09-21T01:47:42.119Z,50.4
2016-09-21T01:48:22.776Z,50.4
2016-09-21T01:49:03.450Z,50.4
2016-09-21T01:49:44.120Z,50.31
2016-09-21T01:50:24.750Z,50.4
2016-09-21T01:51:05.396Z,50.31
2016-09-21T01:51:46.101Z,50.4
2016-09-21T01:52:26.773Z,50.5
2016-09-21T01:53:07.411Z,50.31
2016-09-21T01:53:48.093Z,50.4
2016-09-21T01:54:28.758Z,50.6
2016-09-21T01:55:09.450Z,50.6
2016-09-21T01:55:50.105Z,50.4
2016-09-21T01:56:30.749Z,50.4
2016-09-21T01:57:11.435Z,50.4
2016-09-21T01:57:52.161Z,50.4
2016-09-21T01:58:32.867Z,50.4
2016-09-21T01:59:13.529Z,50.31
2016-09-21T01:59:54.205Z,50.4
2016-09-21T02:00:34.868Z,50.5
2016-09-21T02:01:15.555Z,50.12
2016-09-21T02:01:56.263Z,50.31
2016-09-21T02:02:36.941Z,50.24
2016-09-21T02:03:17.620Z,50.21
2016-09-21T02:03:58.300Z,50.02
2016-09-21T02:04:39.011Z,50.14
2016-09-21T02:05:19.738Z,50.02
2016-09-21T02:06:00.457Z,50.02
2016-09-21T02:06:41.143Z,50.12
2016-09-21T02:07:21.800Z,50.12
2016-09-21T02:08:02.500Z,50.12
2016-09-21T02:08:43.225Z,50.33
2016-09-21T02:09:23.928Z,50.14
2016-09-21T02:10:04.582Z,50.24
2016-09-21T02:10:45.295Z,50.12
2016-09-21T02:11:25.961Z,50.24
2016-09-21T02:12:06.646Z,50.21
2016-09-21T02:12:47.387Z,50.12
2016-09-21T02:13:28.058Z,50.21
2016-09-21T02:14:08.727Z,50.12
2016-09-21T02:14:49.436Z,50.04
2016-09-21T02:15:30.165Z,49.95
2016-09-21T02:16:10.888Z,49.92
2016-09-21T02:16:51.586Z,49.95
2016-09-21T02:17:32.236Z,50.21
2016-09-21T02:18:12.893Z,50.12
2016-09-21T02:18:53.577Z,50.33
2016-09-21T02:19:34.235Z,49.92
2016-09-21T02:20:14.908Z,50.43
2016-09-21T02:20:55.562Z,50.24
2016-09-21T02:21:36.249Z,50.21
2016-09-21T02:22:16.921Z,50.4
2016-09-21T02:22:57.573Z,50.33
2016-09-21T02:23:38.276Z,50.43
2016-09-21T02:24:19.000Z,50.43
2016-09-21T02:24:59.689Z,50.43
2016-09-21T02:25:40.371Z,50.4
2016-09-21T02:26:21.029Z,50.43
2016-09-21T02:27:01.706Z,50.52
2016-09-21T02:27:42.389Z,50.43
2016-09-21T02:28:23.122Z,50.33
2016-09-21T02:29:03.816Z,50.33
2016-09-21T02:29:44.524Z,50.52
2016-09-21T02:30:25.208Z,50.33
2016-09-21T02:31:05.918Z,50.43
2016-09-21T02:31:46.620Z,50.33
2016-09-21T02:32:27.274Z,50.52
2016-09-21T02:33:07.952Z,50.31
2016-09-21T02:33:48.619Z,50.4
2016-09-21T02:34:29.305Z,50.43
2016-09-21T02:35:09.978Z,50.43
2016-09-21T02:35:50.710Z,50.33
2016-09-21T02:36:31.364Z,50.43
2016-09-21T02:37:12.074Z,50.52
2016-09-21T02:37:52.727Z,50.43
2016-09-21T02:38:33.453Z,50.43
2016-09-21T02:39:14.112Z,50.52
2016-09-21T02:39:54.790Z,50.33
2016-09-21T02:40:35.446Z,50.43
2016-09-21T02:41:16.111Z,50.43
2016-09-21T02:41:56.766Z,50.52
2016-09-21T02:42:37.412Z,50.52
2016-09-21T02:43:18.098Z,50.43
2016-09-21T02:43:58.800Z,50.43
2016-09-21T02:44:39.495Z,50.43
2016-09-21T02:45:20.198Z,50.33
2016-09-21T02:46:00.904Z,50.52
2016-09-21T02:46:41.568Z,50.33
2016-09-21T02:47:22.219Z,50.52
2016-09-21T02:48:02.933Z,50.52
2016-09-21T02:48:43.598Z,50.43
2016-09-21T02:49:24.253Z,50.52
2016-09-21T02:50:04.954Z,50.43
2016-09-21T02:50:45.628Z,50.43
2016-09-21T02:51:26.300Z,50.43
2016-09-21T02:52:06.988Z,50.43
2016-09-21T02:52:47.671Z,50.33
2016-09-21T02:53:28.365Z,50.43
2016-09-21T02:54:09.076Z,50.52
2016-09-21T02:54:49.766Z,50.33
2016-09-21T02:55:30.400Z,50.43
2016-09-21T02:56:11.119Z,49.85
2016-09-21T02:56:51.766Z,50.43
2016-09-21T02:57:32.446Z,50.04
2016-09-21T02:58:13.171Z,50.43
2016-09-21T02:58:53.850Z,50.33
2016-09-21T02:59:34.547Z,50.43
2016-09-21T03:00:15.246Z,50.43
2016-09-21T03:00:55.952Z,50.43
2016-09-21T03:01:36.620Z,50.43
2016-09-21T03:02:17.264Z,50.43
2016-09-21T03:02:57.917Z,50.43
2016-09-21T03:03:38.662Z,50.43
2016-09-21T03:04:19.354Z,50.33
2016-09-21T03:05:00.046Z,50.14
2016-09-21T03:05:40.738Z,50.33
2016-09-21T03:06:21.453Z,50.43
2016-09-21T03:07:02.127Z,50.33
2016-09-21T03:07:42.828Z,50.33
2016-09-21T03:08:23.482Z,50.33
2016-09-21T03:09:04.112Z,50.43
2016-09-21T03:09:44.806Z,50.43
2016-09-21T03:10:25.478Z,50.33
2016-09-21T03:11:06.150Z,50.33
2016-09-21T03:11:46.840Z,50.33
2016-09-21T03:12:27.513Z,50.43
2016-09-21T03:13:08.179Z,50.52
2016-09-21T03:13:48.877Z,50.33
2016-09-21T03:14:29.572Z,50.33
2016-09-21T03:15:10.233Z,50.33
2016-09-21T03:15:50.934Z,50.52
2016-09-21T03:16:31.640Z,50.43
2016-09-21T03:17:12.324Z,50.43
2016-09-21T03:17:52.992Z,50.43
2016-09-21T03:18:33.707Z,50.43
2016-09-21T03:19:14.398Z,50.43
2016-09-21T03:19:55.063Z,50.43
2016-09-21T03:20:35.733Z,50.43
2016-09-21T03:21:16.400Z,50.43
2016-09-21T03:21:57.130Z,50.52
2016-09-21T03:22:37.819Z,50.43
2016-09-21T03:23:18.528Z,50.43
2016-09-21T03:23:59.194Z,50.43
2016-09-21T03:24:39.971Z,50.52
2016-09-21T03:25:20.649Z,50.33
2016-09-21T03:26:01.304Z,50.33
2016-09-21T03:26:42.027Z,50.43
2016-09-21T03:27:22.716Z,50.33
2016-09-21T03:28:03.410Z,50.43
2016-09-21T03:28:44.135Z,50.43
2016-09-21T03:29:24.855Z,50.43
2016-09-21T03:30:05.545Z,50.43
2016-09-21T03:30:46.228Z,50.52
2016-09-21T03:31:26.909Z,50.43
2016-09-21T03:32:07.625Z,50.43
2016-09-21T03:32:48.286Z,50.33
2016-09-21T03:33:29.004Z,50.43
2016-09-21T03:34:09.677Z,50.43
2016-09-21T03:34:50.394Z,50.33
2016-09-21T03:35:31.089Z,50.43
2016-09-21T03:36:11.809Z,50.52
2016-09-21T03:36:52.487Z,50.33
2016-09-21T03:37:33.148Z,50.33
2016-09-21T03:38:13.815Z,50.52
2016-09-21T03:38:54.482Z,50.33
2016-09-21T03:39:35.146Z,50.33
2016-09-21T03:40:15.793Z,50.33
2016-09-21T03:40:56.475Z,50.43
2016-09-21T03:41:37.124Z,50.43
2016-09-21T03:42:17.843Z,50.52
2016-09-21T03:42:58.532Z,50.43
2016-09-21T03:43:39.163Z,50.43
2016-09-21T03:44:19.830Z,50.43
2016-09-21T03:45:00.536Z,50.52
2016-09-21T03:45:41.174Z,50.52
2016-09-21T03:46:21.928Z,50.52
2016-09-21T03:47:02.614Z,50.52
2016-09-21T03:47:43.326Z,50.43
2016-09-21T03:48:23.979Z,50.43
2016-09-21T03:49:04.657Z,50.43
2016-09-21T03:49:45.337Z,50.52
2016-09-21T03:50:26.025Z,50.43
2016-09-21T03:51:06.693Z,50.33
2016-09-21T03:51:47.367Z,50.43
2016-09-21T03:52:28.016Z,50.33
2016-09-21T03:53:08.708Z,50.33
2016-09-21T03:53:49.411Z,50.33
2016-09-21T03:54:30.142Z,50.33
2016-09-21T03:55:10.805Z,50.33
2016-09-21T03:55:51.485Z,50.52
2016-09-21T03:56:32.200Z,50.33
2016-09-21T03:57:12.918Z,50.43
2016-09-21T03:57:53.599Z,50.33
2016-09-21T03:58:34.263Z,50.43
2016-09-21T03:59:14.988Z,50.43
2016-09-21T03:59:55.653Z,50.33
2016-09-21T04:00:36.367Z,50.43
2016-09-21T04:01:17.056Z,50.43
2016-09-21T04:01:57.746Z,49.95
2016-09-21T04:02:38.401Z,50.33
2016-09-21T04:03:19.069Z,50.43
2016-09-21T04:03:59.712Z,50.14
2016-09-21T04:04:40.422Z,49.95
2016-09-21T04:05:21.115Z,50.24
2016-09-21T04:06:01.833Z,50.14
2016-09-21T04:06:42.525Z,50.33
2016-09-21T04:07:23.188Z,50.24
2016-09-21T04:08:03.865Z,49.95
2016-09-21T04:08:44.598Z,50.24
2016-09-21T04:09:25.321Z,49.95
2016-09-21T04:10:05.980Z,50.04
2016-09-21T04:10:46.711Z,50.14
2016-09-21T04:11:27.425Z,50.14
2016-09-21T04:12:08.090Z,49.95
2016-09-21T04:12:48.781Z,50.43
2016-09-21T04:13:29.432Z,50.14
2016-09-21T04:14:10.121Z,50.04
2016-09-21T04:14:50.756Z,50.04
2016-09-21T04:15:31.435Z,50.14
2016-09-21T04:16:12.142Z,50.24
2016-09-21T04:16:52.799Z,50.04
2016-09-21T04:17:33.446Z,50.33
2016-09-21T04:18:14.128Z,49.95
2016-09-21T04:18:54.865Z,50.14
2016-09-21T04:19:35.549Z,50.14
2016-09-21T04:20:16.248Z,49.95
2016-09-21T04:20:56.863Z,50.14
2016-09-21T04:21:37.563Z,49.95
2016-09-21T04:22:18.229Z,50.14
2016-09-21T04:22:58.925Z,49.95
2016-09-21T04:23:39.572Z,50.14
2016-09-21T04:24:20.235Z,49.95
2016-09-21T04:25:00.960Z,50.14
2016-09-21T04:25:41.595Z,50.04
2016-09-21T04:26:22.277Z,50.14
2016-09-21T04:27:02.951Z,50.14
2016-09-21T04:27:43.608Z,49.95
2016-09-21T04:28:24.300Z,49.95
2016-09-21T04:29:04.952Z,50.14
2016-09-21T04:29:45.612Z,50.43
2016-09-21T04:30:26.305Z,50.04
2016-09-21T04:31:07.036Z,50.14
2016-09-21T04:31:47.714Z,50.14
2016-09-21T04:32:28.386Z,50.14
2016-09-21T04:33:09.098Z,49.95
2016-09-21T04:33:49.798Z,49.95
2016-09-21T04:34:30.460Z,49.97
2016-09-21T04:35:11.149Z,50.35
2016-09-21T04:35:51.785Z,50.43
2016-09-21T04:36:32.523Z,50.52
2016-09-21T04:37:13.242Z,50.35
2016-09-21T04:37:53.921Z,49.95
2016-09-21T04:38:34.618Z,50.07
2016-09-21T04:39:15.247Z,49.95
2016-09-21T04:39:55.931Z,50.33
2016-09-21T04:40:36.606Z,50.04
2016-09-21T04:41:17.312Z,50.33
2016-09-21T04:41:57.999Z,50.43
2016-09-21T04:42:38.695Z,50.14
2016-09-21T04:43:19.380Z,50.33
2016-09-21T04:44:00.114Z,49.95
2016-09-21T04:44:40.805Z,50.45
2016-09-21T04:45:21.476Z,50.33
2016-09-21T04:46:02.148Z,50.45
2016-09-21T04:46:42.805Z,50.43
2016-09-21T04:47:23.499Z,50.35
2016-09-21T04:48:04.256Z,50.24
2016-09-21T04:48:44.922Z,50.43
2016-09-21T04:49:25.597Z,50.43
2016-09-21T04:50:06.275Z,50.43
2016-09-21T04:50:46.924Z,50.43
2016-09-21T04:51:27.582Z,50.33
2016-09-21T04:52:08.245Z,50.43
2016-09-21T04:52:48.920Z,50.43
2016-09-21T04:53:29.593Z,50.33
2016-09-21T04:54:10.270Z,50.43
2016-09-21T04:54:50.960Z,50.43
2016-09-21T04:55:31.655Z,50.33
2016-09-21T04:56:12.342Z,50.43
2016-09-21T04:56:52.997Z,49.65
2016-09-21T04:57:33.700Z,50.07
2016-09-21T04:58:14.351Z,50.33
2016-09-21T04:58:54.998Z,50.33
2016-09-21T04:59:35.682Z,50.43
2016-09-21T05:00:16.367Z,50.43
2016-09-21T05:00:57.075Z,50.52
2016-09-21T05:01:37.778Z,50.52
2016-09-21T05:02:18.421Z,50.52
2016-09-21T05:02:59.189Z,50.07
2016-09-21T05:03:39.838Z,50.43
2016-09-21T05:04:20.493Z,50.04
2016-09-21T05:05:01.194Z,50.04
2016-09-21T05:05:41.865Z,50.16
2016-09-21T05:06:22.530Z,50.07
2016-09-21T05:07:03.198Z,50.14
2016-09-21T05:07:43.891Z,50.07
2016-09-21T05:08:24.609Z,50.07
2016-09-21T05:09:05.291Z,50.14
2016-09-21T05:09:45.980Z,50.16
2016-09-21T05:10:26.665Z,50.24
2016-09-21T05:11:07.368Z,50.16
2016-09-21T05:11:48.047Z,50.24
2016-09-21T05:12:28.721Z,50.16
2016-09-21T05:13:09.425Z,50.04
2016-09-21T05:13:50.055Z,50.26
2016-09-21T05:14:30.774Z,50.07
2016-09-21T05:15:11.407Z,49.97
2016-09-21T05:15:52.063Z,50.16
2016-09-21T05:16:32.752Z,50.26
2016-09-21T05:17:13.400Z,49.95
2016-09-21T05:17:54.041Z,50.07
2016-09-21T05:18:34.737Z,50.07
2016-09-21T05:19:15.379Z,50.07
2016-09-21T05:19:56.090Z,49.97
2016-09-21T05:20:36.736Z,50.14
2016-09-21T05:21:17.393Z,50.16
2016-09-21T05:21:58.046Z,50.35
2016-09-21T05:22:38.780Z,50.16
2016-09-21T05:23:19.464Z,50.33
2016-09-21T05:24:00.149Z,50.26
2016-09-21T05:24:40.884Z,50.16
2016-09-21T05:25:21.560Z,50.16
2016-09-21T05:26:02.211Z,50.07
2016-09-21T05:26:42.918Z,50.14
2016-09-21T05:27:23.637Z,50.04
2016-09-21T05:28:04.330Z,49.95
2016-09-21T05:28:45.017Z,49.85
2016-09-21T05:29:25.735Z,49.97
2016-09-21T05:30:06.389Z,49.97
2016-09-21T05:30:47.092Z,49.97
2016-09-21T05:31:27.745Z,49.97
2016-09-21T05:32:08.454Z,49.97
2016-09-21T05:32:49.138Z,50.16
2016-09-21T05:33:29.835Z,50.16
2016-09-21T05:34:10.548Z,49.85
2016-09-21T05:34:51.238Z,50.07
2016-09-21T05:35:31.988Z,50.07
2016-09-21T05:36:12.665Z,49.97
2016-09-21T05:36:53.362Z,50.07
2016-09-21T05:37:34.062Z,49.87
2016-09-21T05:38:14.754Z,50.07
2016-09-21T05:38:55.398Z,50.07
2016-09-21T05:39:36.113Z,49.77
2016-09-21T05:40:16.820Z,50.16
2016-09-21T05:40:57.477Z,50.04
2016-09-21T05:41:38.112Z,49.87
2016-09-21T05:42:18.828Z,49.87
2016-09-21T05:42:59.507Z,49.87
2016-09-21T05:43:40.159Z,49.87
2016-09-21T05:44:20.838Z,49.87
2016-09-21T05:45:01.543Z,49.77
2016-09-21T05:45:42.254Z,49.87
2016-09-21T05:46:22.873Z,49.87
2016-09-21T05:47:03.559Z,49.87
2016-09-21T05:47:44.198Z,49.87
2016-09-21T05:48:24.893Z,49.87
2016-09-21T05:49:05.570Z,49.87
2016-09-21T05:49:46.239Z,49.75
2016-09-21T05:50:26.928Z,49.77
2016-09-21T05:51:07.580Z,49.68
2016-09-21T05:51:48.205Z,49.77
2016-09-21T05:52:28.909Z,49.77
2016-09-21T05:53:09.621Z,49.87
2016-09-21T05:53:50.270Z,49.77
2016-09-21T05:54:30.987Z,49.68
2016-09-21T05:55:11.640Z,49.68
2016-09-21T05:55:52.338Z,49.97
2016-09-21T05:56:32.989Z,49.68
2016-09-21T05:57:13.717Z,49.68
2016-09-21T05:57:54.380Z,49.97
2016-09-21T05:58:35.141Z,49.68
2016-09-21T05:59:15.851Z,49.29
2016-09-21T05:59:56.548Z,49.77
2016-09-21T06:00:37.251Z,49.49
2016-09-21T06:01:17.990Z,49.39
2016-09-21T06:01:58.675Z,49.77
2016-09-21T06:02:39.344Z,49.29
2016-09-21T06:03:20.029Z,49.29
2016-09-21T06:04:00.702Z,49.29
2016-09-21T06:04:41.368Z,49.39
2016-09-21T06:05:22.079Z,49.49
2016-09-21T06:06:02.724Z,49.39
2016-09-21T06:06:43.430Z,49.58
2016-09-21T06:07:24.132Z,49.39
2016-09-21T06:08:04.841Z,49.49
2016-09-21T06:08:45.551Z,49.49
2016-09-21T06:09:26.255Z,49.49
2016-09-21T06:10:06.917Z,49.77
2016-09-21T06:10:47.556Z,49.68
2016-09-21T06:11:28.248Z,49.77
2016-09-21T06:12:08.915Z,49.77
2016-09-21T06:12:49.669Z,49.58
2016-09-21T06:13:30.388Z,49.77
2016-09-21T06:14:11.044Z,49.77
2016-09-21T06:14:51.710Z,49.97
2016-09-21T06:15:32.369Z,50.07
2016-09-21T06:16:13.094Z,49.87
2016-09-21T06:16:53.759Z,49.97
2016-09-21T06:17:34.426Z,49.77
2016-09-21T06:18:15.144Z,49.97
2016-09-21T06:18:55.848Z,49.87
2016-09-21T06:19:36.508Z,50.16
2016-09-21T06:20:17.250Z,49.97
2016-09-21T06:20:57.898Z,49.97
2016-09-21T06:21:38.586Z,49.77
2016-09-21T06:22:19.307Z,49.77
2016-09-21T06:23:00.031Z,49.49
2016-09-21T06:23:40.731Z,49.39
2016-09-21T06:24:21.405Z,49
2016-09-21T06:25:02.113Z,49.29
2016-09-21T06:25:42.806Z,49.39
2016-09-21T06:26:23.467Z,49.58
2016-09-21T06:27:04.144Z,49.19
2016-09-21T06:27:44.840Z,49
2016-09-21T06:28:25.505Z,48.9
2016-09-21T06:29:06.179Z,49.19
2016-09-21T06:29:46.822Z,49.29
2016-09-21T06:30:34.524Z,49.39
2016-09-21T06:31:15.292Z,49.1
2016-09-21T06:31:56.012Z,48.9
2016-09-21T06:32:36.744Z,48.81
2016-09-21T06:33:17.555Z,49.1
2016-09-21T06:33:58.258Z,49
2016-09-21T06:34:39.016Z,49.1
2016-09-21T06:35:19.770Z,49
2016-09-21T06:36:00.505Z,48.83
2016-09-21T06:36:41.252Z,48.81
2016-09-21T06:37:22.007Z,48.9
2016-09-21T06:38:02.753Z,48.81
2016-09-21T06:38:43.438Z,48.83
2016-09-21T06:39:24.210Z,49.32
2016-09-21T06:40:04.942Z,49.12
2016-09-21T06:40:45.622Z,48.81
2016-09-21T06:41:26.356Z,48.42
2016-09-21T06:42:07.104Z,48.44
2016-09-21T06:42:47.845Z,48.44
2016-09-21T06:43:28.595Z,48.54
2016-09-21T06:44:09.317Z,48.44
2016-09-21T06:44:50.061Z,48.74
2016-09-21T06:45:30.848Z,48.54
2016-09-21T06:46:11.623Z,48.71
2016-09-21T06:46:52.354Z,48.54
2016-09-21T06:47:33.089Z,48.64
2016-09-21T06:48:13.864Z,48.83
2016-09-21T06:48:54.576Z,48.54
2016-09-21T06:49:35.342Z,48.64
2016-09-21T06:50:16.093Z,48.83
2016-09-21T06:50:56.818Z,48.44
2016-09-21T06:51:37.534Z,48.54
2016-09-21T06:52:18.265Z,48.44
2016-09-21T06:52:59.007Z,48.15
2016-09-21T06:53:39.707Z,48.83
2016-09-21T06:54:20.454Z,48.35
2016-09-21T06:55:01.274Z,48.15
2016-09-21T06:55:41.988Z,48.44
2016-09-21T06:56:22.730Z,48.15
2016-09-21T06:57:03.512Z,48.64
2016-09-21T06:57:44.224Z,48.54
2016-09-21T06:58:24.933Z,48.74
2016-09-21T06:59:05.636Z,48.74
2016-09-21T06:59:46.409Z,48.83
2016-09-21T07:00:27.201Z,48.74
2016-09-21T07:01:07.981Z,48.54
2016-09-21T07:01:48.780Z,48.83
2016-09-21T07:02:29.572Z,48.44
2016-09-21T07:03:10.350Z,48.74
2016-09-21T07:03:51.033Z,48.15
2016-09-21T07:04:31.784Z,48.54
2016-09-21T07:05:12.542Z,48.35
2016-09-21T07:05:53.291Z,48.93
2016-09-21T07:06:34.027Z,48.44
2016-09-21T07:07:14.824Z,48.44
2016-09-21T07:07:55.571Z,48.44
2016-09-21T07:08:36.275Z,48.93
2016-09-21T07:09:16.972Z,48.35
2016-09-21T07:09:57.702Z,48.25
2016-09-21T07:10:38.373Z,48.44
2016-09-21T07:11:19.127Z,48.15
2016-09-21T07:11:59.852Z,48.74
2016-09-21T07:12:41.364Z,48.15
2016-09-21T07:13:22.171Z,48.44
2016-09-21T07:14:02.932Z,48.44
2016-09-21T07:14:43.699Z,48.76
2016-09-21T07:15:24.450Z,48.25
2016-09-21T07:16:05.217Z,47.79
2016-09-21T07:16:45.953Z,47.77
2016-09-21T07:17:26.801Z,47.86
2016-09-21T07:18:07.649Z,48.06
2016-09-21T07:18:48.408Z,47.94
2016-09-21T07:19:29.107Z,47.74
2016-09-21T07:20:09.854Z,47.94
2016-09-21T07:20:50.559Z,47.84
2016-09-21T07:21:31.277Z,48.01
2016-09-21T07:22:12.039Z,48.03
2016-09-21T07:22:52.759Z,47.94
2016-09-21T07:23:33.558Z,47.91
2016-09-21T07:24:14.295Z,48.01
2016-09-21T07:24:55.189Z,47.91
2016-09-21T07:25:36.008Z,47.91
2016-09-21T07:26:16.840Z,47.52
2016-09-21T07:26:57.709Z,47.62
2016-09-21T07:27:38.650Z,47.91
2016-09-21T07:28:19.588Z,48.08
2016-09-21T07:29:00.350Z,47.62
2016-09-21T07:29:41.224Z,47.79
2016-09-21T07:30:22.004Z,47.72
2016-09-21T07:31:02.907Z,47.69
2016-09-21T07:31:43.804Z,47.02
2016-09-21T07:32:24.829Z,47.5
2016-09-21T07:33:05.534Z,46.73
2016-09-21T07:33:46.416Z,46.53
2016-09-21T07:34:27.420Z,46.73
2016-09-21T07:35:09.192Z,46.73
2016-09-21T07:35:51.191Z,46.53
2016-09-21T07:36:33.113Z,46.83
2016-09-21T07:37:16.171Z,46.73
2016-09-21T07:37:57.322Z,46.73
2016-09-21T07:38:39.400Z,46.63
2016-09-21T07:39:20.127Z,46.63
2016-09-21T07:40:00.998Z,46.53
2016-09-21T07:40:41.748Z,46.15
2016-09-21T07:41:23.861Z,46.25
2016-09-21T07:42:04.923Z,46.63
2016-09-21T07:42:45.839Z,46.32
2016-09-21T07:43:26.942Z,46.25
2016-09-21T07:44:08.278Z,46.25
2016-09-21T07:44:50.244Z,46.25
2016-09-21T07:45:31.266Z,46.32
2016-09-21T07:46:12.205Z,46.53
2016-09-21T07:46:53.492Z,46.22
2016-09-21T07:47:34.439Z,46.34
2016-09-21T07:48:15.342Z,45.66
2016-09-21T07:48:56.289Z,46.63
2016-09-21T07:49:37.414Z,47.6
2016-09-21T07:50:18.447Z,48.37
2016-09-21T07:50:59.229Z,48.57
2016-09-21T07:51:40.169Z,48.47
2016-09-21T07:52:21.039Z,48.37
2016-09-21T07:53:02.835Z,48.37
2016-09-21T07:53:43.780Z,49.15
2016-09-21T07:54:24.520Z,49.73
2016-09-21T07:55:05.282Z,49.37
2016-09-21T07:55:46.070Z,50.02
2016-09-21T07:56:26.874Z,50.43
2016-09-21T07:57:07.720Z,50.04
2016-09-21T07:57:48.534Z,49.46
2016-09-21T07:58:29.413Z,50.04
2016-09-21T07:59:10.202Z,49.95
2016-09-21T07:59:50.937Z,49.56
2016-09-21T08:00:31.684Z,49.44
2016-09-21T08:01:12.421Z,49.37
2016-09-21T08:01:53.188Z,49.63
2016-09-21T08:02:34.112Z,49.37
2016-09-21T08:03:14.969Z,48.97
2016-09-21T08:03:55.767Z,49.05
2016-09-21T08:04:36.630Z,48.88
2016-09-21T08:05:17.408Z,49.15
2016-09-21T08:05:58.133Z,49.65
2016-09-21T08:06:38.832Z,49.75
2016-09-21T08:07:20.626Z,49.07
2016-09-21T08:08:01.574Z,48.79
2016-09-21T08:08:42.434Z,48.76
2016-09-21T08:09:23.249Z,48.86
2016-09-21T08:10:04.144Z,48.76
2016-09-21T08:10:45.012Z,48.95
2016-09-21T08:11:25.962Z,48.66
2016-09-21T08:12:07.910Z,47.99
2016-09-21T08:12:48.801Z,48.18
2016-09-21T08:13:30.663Z,47.99
2016-09-21T08:14:11.476Z,48.18
2016-09-21T08:14:52.386Z,48.08
2016-09-21T08:15:33.736Z,47.79
2016-09-21T08:16:15.682Z,47.99
2016-09-21T08:16:56.615Z,48.08
2016-09-21T08:17:37.423Z,47.89
2016-09-21T08:18:18.346Z,47.89
2016-09-21T08:18:59.292Z,47.5
2016-09-21T08:19:40.202Z,47.79
2016-09-21T08:20:21.227Z,48.08
2016-09-21T08:21:02.007Z,47.6
2016-09-21T08:21:42.781Z,47.6
2016-09-21T08:22:23.576Z,47.79
2016-09-21T08:23:05.404Z,47.28
2016-09-21T08:23:46.316Z,48.08
2016-09-21T08:24:27.178Z,47.5
2016-09-21T08:25:08.035Z,47.67
2016-09-21T08:25:48.855Z,47.58
2016-09-21T08:26:30.101Z,47.69
2016-09-21T08:27:11.347Z,47.69
2016-09-21T08:27:52.414Z,47.67
2016-09-21T08:28:33.359Z,46.92
2016-09-21T08:29:14.157Z,47.09
2016-09-21T08:29:55.085Z,46.9
2016-09-21T08:30:35.865Z,46.61
2016-09-21T08:31:16.902Z,46.61
2016-09-21T08:31:58.639Z,46.61
2016-09-21T08:32:40.658Z,46.22
2016-09-21T08:33:21.562Z,46.73
2016-09-21T08:34:03.312Z,45.83
2016-09-21T08:34:44.361Z,46.22
2016-09-21T08:35:25.302Z,46.25
2016-09-21T08:36:06.169Z,46.32
2016-09-21T08:36:47.404Z,46.32
2016-09-21T08:37:28.366Z,46.03
2016-09-21T08:38:09.355Z,45.35
2016-09-21T08:38:50.750Z,45.74
2016-09-21T08:39:31.610Z,45.66
2016-09-21T08:40:12.513Z,45.35
2016-09-21T08:40:53.352Z,45.37
2016-09-21T08:41:34.334Z,45.64
2016-09-21T08:42:15.593Z,45.25
2016-09-21T08:44:34.647Z,45.25
2016-09-21T08:45:15.417Z,45.25
2016-09-21T08:45:56.171Z,45.06
2016-09-21T08:46:36.958Z,44.96
2016-09-21T08:47:17.820Z,45.16
2016-09-21T08:47:58.814Z,45.64
2016-09-21T08:48:40.652Z,45.83